createdAt,value
2023-02-19T00:04:31.832Z,11.43
2023-02-19T00:09:31.784Z,11.51
2023-02-19T00:14:31.825Z,11.43
2023-02-19T00:19:31.666Z,11.60
2023-02-19T00:24:31.693Z,11.60
2023-02-19T00:29:31.651Z,11.51
2023-02-19T00:34:31.498Z,11.65
2023-02-19T00:39:31.437Z,11.42
2023-02-19T00:44:31.351Z,11.60
2023-02-19T00:49:31.334Z,11.64
2023-02-19T00:54:32.335Z,11.51
2023-02-19T00:59:31.217Z,11.40
2023-02-19T01:04:31.194Z,11.55
2023-02-19T01:09:31.287Z,11.47
2023-02-19T01:14:31.111Z,11.58
2023-02-19T01:19:31.058Z,11.40
2023-02-19T01:24:30.914Z,11.42
2023-02-19T01:29:30.887Z,11.17
2023-02-19T01:34:30.884Z,11.40
2023-02-19T01:39:30.882Z,11.57
2023-02-19T01:44:30.738Z,11.25
2023-02-19T01:49:30.645Z,11.33
2023-02-19T01:54:30.679Z,11.47
2023-02-19T01:59:30.644Z,11.43
2023-02-19T02:04:30.530Z,11.36
2023-02-19T02:09:30.411Z,11.39
2023-02-19T02:14:30.372Z,11.32
2023-02-19T02:19:30.304Z,11.25
2023-02-19T02:24:30.288Z,11.39
2023-02-19T02:29:30.203Z,11.43
2023-02-19T02:34:30.160Z,11.39
2023-02-19T02:39:30.163Z,11.36
2023-02-19T02:44:30.140Z,11.46
2023-02-19T02:49:30.016Z,11.15
2023-02-19T02:54:30.025Z,11.22
2023-02-19T02:59:29.908Z,11.37
2023-02-19T03:04:29.808Z,11.49
2023-02-19T03:09:29.810Z,11.14
2023-02-19T03:14:29.720Z,11.25
2023-02-19T03:19:29.675Z,11.46
2023-02-19T03:24:29.616Z,11.22
2023-02-19T03:29:29.551Z,11.09
2023-02-19T03:34:29.503Z,11.28
2023-02-19T03:39:29.471Z,11.18
2023-02-19T03:44:29.441Z,11.11
2023-02-19T03:49:29.432Z,11.25
2023-02-19T03:54:29.370Z,11.27
2023-02-19T03:59:29.232Z,11.14
2023-02-19T04:04:29.186Z,11.06
2023-02-19T04:09:29.122Z,11.25
2023-02-19T04:14:29.106Z,11.03
2023-02-19T04:19:29.009Z,11.11
2023-02-19T04:24:29.017Z,10.96
2023-02-19T04:29:28.923Z,11.02
2023-02-19T04:34:28.821Z,11.21
2023-02-19T04:39:28.886Z,11.22
2023-02-19T04:44:28.745Z,11.07
2023-02-19T04:49:28.727Z,11.07
2023-02-19T04:54:28.711Z,11.07
2023-02-19T04:59:28.601Z,10.97
2023-02-19T05:04:28.521Z,10.92
2023-02-19T05:09:28.475Z,10.96
2023-02-19T05:14:28.394Z,10.99
2023-02-19T05:19:28.459Z,10.79
2023-02-19T05:24:28.267Z,10.88
2023-02-19T05:29:28.261Z,10.82
2023-02-19T05:34:28.214Z,10.73
2023-02-19T05:39:28.143Z,10.92
2023-02-19T05:44:28.269Z,10.79
2023-02-19T05:49:27.982Z,10.60
2023-02-19T05:54:27.956Z,10.84
2023-02-19T05:59:27.992Z,10.61
2023-02-19T06:04:27.848Z,10.76
2023-02-19T06:09:27.985Z,10.86
2023-02-19T06:14:27.753Z,10.64
2023-02-19T06:19:27.672Z,10.73
2023-02-19T06:24:27.674Z,10.66
2023-02-19T06:29:27.590Z,10.70
2023-02-19T06:34:27.567Z,10.44
2023-02-19T06:39:27.451Z,10.56
2023-02-19T06:44:27.405Z,10.67
2023-02-19T06:49:27.415Z,10.61
2023-02-19T06:54:27.301Z,10.53
2023-02-19T06:59:27.275Z,10.55
2023-02-19T07:04:27.239Z,10.59
2023-02-19T07:09:27.147Z,10.40
2023-02-19T07:14:27.114Z,10.33
2023-02-19T07:19:27.025Z,10.33
2023-02-19T07:24:27.054Z,10.53
2023-02-19T07:29:26.930Z,10.56
2023-02-19T07:34:26.864Z,10.51
2023-02-19T07:39:26.858Z,10.40
2023-02-19T07:44:26.761Z,10.32
2023-02-19T07:49:26.691Z,10.60
2023-02-19T07:54:26.643Z,10.74
2023-02-19T07:59:26.596Z,10.53
2023-02-19T08:04:26.549Z,10.59
2023-02-19T08:09:26.501Z,10.71
2023-02-19T08:14:26.433Z,10.44
2023-02-19T08:19:26.455Z,10.66
2023-02-19T08:24:26.282Z,10.82
2023-02-19T08:29:26.283Z,10.92
2023-02-19T08:34:26.288Z,11.04
2023-02-19T08:39:26.157Z,11.11
2023-02-19T08:44:26.097Z,11.19
2023-02-19T08:49:26.037Z,11.09
2023-02-19T08:54:25.968Z,11.21
2023-02-19T08:59:25.959Z,11.39
2023-02-19T09:04:25.881Z,11.02
2023-02-19T09:09:25.894Z,11.11
2023-02-19T09:14:25.776Z,10.96
2023-02-19T09:19:25.685Z,11.37
2023-02-19T09:24:25.660Z,11.21
2023-02-19T09:29:25.598Z,11.54
2023-02-19T09:34:25.530Z,11.76
2023-02-19T09:39:25.466Z,11.95
2023-02-19T09:44:25.424Z,12.20
2023-02-19T09:49:26.068Z,11.98
2023-02-19T09:54:25.314Z,11.85
2023-02-19T09:59:25.285Z,11.82
2023-02-19T10:04:25.230Z,11.72
2023-02-19T10:09:25.151Z,11.62
2023-02-19T10:14:25.103Z,11.51
2023-02-19T10:19:25.156Z,11.98
2023-02-19T10:24:24.959Z,11.65
2023-02-19T10:29:25.033Z,11.49
2023-02-19T10:34:24.850Z,11.35
2023-02-19T10:39:24.849Z,11.11
2023-02-19T10:44:24.788Z,11.29
2023-02-19T10:49:24.714Z,11.17
2023-02-19T10:54:24.640Z,11.11
2023-02-19T10:59:24.688Z,11.36
2023-02-19T11:04:24.593Z,11.88
2023-02-19T11:09:24.577Z,12.14
2023-02-19T11:14:24.429Z,12.17
2023-02-19T11:19:24.406Z,12.29
2023-02-19T11:24:24.357Z,12.64
2023-02-19T11:29:24.275Z,12.77
2023-02-19T11:34:24.244Z,12.56
2023-02-19T11:42:09.195Z,12.24
